Search for airport 
image banner adimage banner ad
image banner ad

EVVA - Ventspils

Located in Ventspils, Latvia

ICAO - EVVA, IATA - VNT

Data provided by Airmate  

General information

Coordinates: N57°21'28" E21°32'39"
Elevation is 19 feet MSL.
Magnetic variation is 6° East
Rated:
View ratings: [VIEW]


View others Airports in Ventspils (city)

Operational data

Open for public use
Current time UTC:
Current local time:
Weather
METAR: EVVA 181120Z AUTO 33007KT 9999 -RA SCT014 SCT019 SCT045 11/09 Q1006 RERA
View NOTAMs / SUP AIP / TFR affecting this airport [VIEW]
Communications frequencies: [VIEW]

Runways:

RWY identifierQFULength (ft)Width (ft)SurfaceLDA (ft)
0335°4259105CONC+ASPH
21216°4259105CONC+ASPH

Airport contact information

Address: Ventspils Latvia

Satellite view of EVVA